createdAt,value
2018-12-12T00:02:12.445Z,25.57
2018-12-12T00:05:16.217Z,20.60
2018-12-12T00:08:17.873Z,22.20
2018-12-12T00:11:19.666Z,18.13
2018-12-12T00:14:21.357Z,19.23
2018-12-12T00:17:23.061Z,22.00
2018-12-12T00:20:24.758Z,19.60
2018-12-12T00:23:26.596Z,20.40
2018-12-12T00:26:28.224Z,21.37
2018-12-12T00:29:30.027Z,17.77
2018-12-12T00:32:31.770Z,18.87
2018-12-12T00:35:33.466Z,23.30
2018-12-12T00:38:35.208Z,20.07
2018-12-12T00:41:36.891Z,23.50
2018-12-12T00:44:38.697Z,24.63
2018-12-12T00:47:40.491Z,20.03
2018-12-12T00:50:42.107Z,21.30
2018-12-12T00:53:43.852Z,18.70
2018-12-12T00:56:45.985Z,17.47
2018-12-12T00:59:47.719Z,16.03
2018-12-12T01:02:49.583Z,19.93
2018-12-12T01:05:51.247Z,18.00
2018-12-12T01:08:52.990Z,19.53
2018-12-12T01:12:01.233Z,17.27
2018-12-12T01:15:03.057Z,28.27
2018-12-12T01:18:04.817Z,16.50
2018-12-12T01:21:06.564Z,17.90
2018-12-12T01:24:08.378Z,18.53
2018-12-12T01:27:10.116Z,17.67
2018-12-12T01:30:11.822Z,16.83
2018-12-12T01:33:13.556Z,15.37
2018-12-12T01:36:15.217Z,18.00
2018-12-12T01:39:16.977Z,17.83
2018-12-12T01:42:18.657Z,19.17
2018-12-12T01:45:20.357Z,17.50
2018-12-12T01:48:22.030Z,18.13
2018-12-12T01:51:23.758Z,18.03
2018-12-12T01:54:26.024Z,18.27
2018-12-12T01:57:27.738Z,17.17
2018-12-12T02:00:29.456Z,18.60
2018-12-12T02:03:31.179Z,20.90
2018-12-12T02:06:32.897Z,16.20
2018-12-12T02:09:34.617Z,17.60
2018-12-12T02:12:36.318Z,18.20
2018-12-12T02:15:37.986Z,15.57
2018-12-12T02:18:40.770Z,18.20
2018-12-12T02:21:42.467Z,16.43
2018-12-12T02:24:44.377Z,13.80
2018-12-12T02:27:46.308Z,14.60
2018-12-12T02:30:48.131Z,18.57
2018-12-12T02:33:49.862Z,15.10
2018-12-12T02:36:51.520Z,16.73
2018-12-12T02:39:53.228Z,16.20
2018-12-12T02:42:54.934Z,14.37
2018-12-12T02:45:56.690Z,11.87
2018-12-12T02:48:58.465Z,14.00
2018-12-12T02:52:00.291Z,13.17
2018-12-12T02:55:02.129Z,17.50
2018-12-12T02:58:03.984Z,16.20
2018-12-12T03:01:05.725Z,14.93
2018-12-12T03:04:07.434Z,17.50
2018-12-12T03:07:09.168Z,18.80
2018-12-12T03:10:10.854Z,18.30
2018-12-12T03:13:12.570Z,19.73
2018-12-12T03:16:14.277Z,16.50
2018-12-12T03:35:37.729Z,18.60
2018-12-12T03:38:39.458Z,20.43
2018-12-12T03:41:41.237Z,16.30
2018-12-12T03:44:43.077Z,18.60
2018-12-12T03:47:44.809Z,18.50
2018-12-12T03:50:46.585Z,22.93
2018-12-12T03:53:48.338Z,15.53
2018-12-12T03:56:50.105Z,14.00
2018-12-12T03:59:51.922Z,14.27
2018-12-12T04:02:53.725Z,16.23
2018-12-12T04:05:56.241Z,13.70
2018-12-12T04:08:57.974Z,18.70
2018-12-12T04:11:59.665Z,17.00
2018-12-12T04:15:01.447Z,18.20
2018-12-12T04:18:03.165Z,18.10
2018-12-12T04:21:05.011Z,17.20
2018-12-12T04:24:06.795Z,18.77
2018-12-12T04:27:08.574Z,18.40
2018-12-12T04:30:10.467Z,20.27
2018-12-12T04:33:12.335Z,18.43
2018-12-12T04:36:14.255Z,18.30
2018-12-12T04:39:15.999Z,15.10
2018-12-12T04:42:17.717Z,14.80
2018-12-12T04:45:19.370Z,20.37
2018-12-12T04:48:21.086Z,17.10
2018-12-12T04:51:22.865Z,18.67
2018-12-12T04:54:24.596Z,22.10
2018-12-12T04:57:26.350Z,17.63
2018-12-12T05:00:28.060Z,18.30
2018-12-12T05:03:29.735Z,19.50
2018-12-12T05:06:31.529Z,19.53
2018-12-12T05:09:33.322Z,19.73
2018-12-12T05:12:35.057Z,26.97
2018-12-12T05:15:36.811Z,43.60
2018-12-12T05:18:38.532Z,26.17
2018-12-12T05:21:40.257Z,22.27
2018-12-12T05:24:42.015Z,25.17
2018-12-12T05:27:43.737Z,20.87
2018-12-12T05:30:45.530Z,33.80
2018-12-12T05:33:47.331Z,37.20
2018-12-12T05:36:51.189Z,37.13
2018-12-12T05:41:57.620Z,39.10
2018-12-12T05:44:59.483Z,40.20
2018-12-12T05:48:01.236Z,41.33
2018-12-12T05:51:03.015Z,54.43
2018-12-12T05:54:04.911Z,45.13
2018-12-12T05:57:08.267Z,51.53
2018-12-12T06:00:12.108Z,50.00
2018-12-12T06:03:13.879Z,51.73
2018-12-12T06:06:15.747Z,58.30
2018-12-12T06:09:17.623Z,57.57
2018-12-12T06:12:19.426Z,60.83
2018-12-12T06:15:21.157Z,54.13
2018-12-12T06:18:22.885Z,62.70
2018-12-12T06:21:24.722Z,51.70
2018-12-12T06:24:26.454Z,62.10
2018-12-12T06:27:28.283Z,61.33
2018-12-12T06:30:29.999Z,63.23
2018-12-12T06:33:31.766Z,65.80
2018-12-12T06:36:33.484Z,73.37
2018-12-12T06:39:35.236Z,72.53
2018-12-12T06:42:37.015Z,72.90
2018-12-12T06:45:45.817Z,64.30
2018-12-12T06:48:47.573Z,69.03
2018-12-12T06:51:49.330Z,73.40
2018-12-12T06:54:51.128Z,65.90
2018-12-12T06:57:52.857Z,68.23
2018-12-12T07:00:54.635Z,74.40
2018-12-12T07:03:56.326Z,68.30
2018-12-12T07:06:58.623Z,72.20
2018-12-12T07:13:13.785Z,65.07
2018-12-12T07:16:15.536Z,77.83
2018-12-12T07:19:17.251Z,70.70
2018-12-12T07:22:19.235Z,76.27
2018-12-12T07:25:21.007Z,74.30
2018-12-12T07:28:22.777Z,80.60
2018-12-12T07:31:24.509Z,83.63
2018-12-12T07:34:26.352Z,80.13
2018-12-12T07:37:28.361Z,76.33
2018-12-12T07:40:30.331Z,126.67
2018-12-12T07:43:34.200Z,130.70
2018-12-12T07:46:42.457Z,92.93
2018-12-12T07:49:46.370Z,97.00
2018-12-12T07:52:54.415Z,91.70
2018-12-12T07:55:56.102Z,82.13
2018-12-12T07:58:58.960Z,75.77
2018-12-12T08:02:01.228Z,75.67
2018-12-12T08:05:03.136Z,85.70
2018-12-12T08:08:04.960Z,95.13
2018-12-12T08:11:06.786Z,161.77
2018-12-12T08:14:08.567Z,136.03
2018-12-12T08:17:10.393Z,95.07
2018-12-12T08:20:12.124Z,97.33
2018-12-12T08:23:14.291Z,78.40
2018-12-12T08:26:16.177Z,86.63
2018-12-12T08:29:17.956Z,84.33
2018-12-12T08:35:37.267Z,69.13
2018-12-12T08:38:39.039Z,78.03
2018-12-12T08:41:40.891Z,84.30
2018-12-12T08:44:42.599Z,77.00
2018-12-12T08:47:44.381Z,79.37
2018-12-12T08:50:46.136Z,69.83
2018-12-12T08:53:48.025Z,84.80
2018-12-12T08:56:50.813Z,78.27
2018-12-12T08:59:52.601Z,80.63
2018-12-12T09:02:55.482Z,76.83
2018-12-12T09:05:57.253Z,79.07
2018-12-12T09:08:58.998Z,73.53
2018-12-12T09:12:00.791Z,74.50
2018-12-12T09:15:02.770Z,72.87
2018-12-12T09:18:05.577Z,77.67
2018-12-12T09:21:14.234Z,68.23
2018-12-12T09:24:15.991Z,75.67
2018-12-12T09:27:17.728Z,108.43
2018-12-12T09:30:19.491Z,97.77
2018-12-12T09:33:24.730Z,158.90
2018-12-12T09:36:29.100Z,102.87
2018-12-12T09:39:30.901Z,167.93
2018-12-12T09:42:32.899Z,78.33
2018-12-12T09:45:34.596Z,86.97
2018-12-12T09:48:36.364Z,79.70
2018-12-12T09:51:38.114Z,83.43
2018-12-12T09:54:42.043Z,74.27
2018-12-12T09:57:43.783Z,87.73
2018-12-12T10:00:45.482Z,157.03
2018-12-12T10:03:47.682Z,78.30
2018-12-12T10:06:56.411Z,70.53
2018-12-12T10:09:58.300Z,70.33
2018-12-12T10:13:00.162Z,116.43
2018-12-12T10:16:01.923Z,88.07
2018-12-12T10:19:03.637Z,78.73
2018-12-12T10:22:05.453Z,82.60
2018-12-12T10:25:07.212Z,82.87
2018-12-12T10:28:10.058Z,90.30
2018-12-12T10:31:18.702Z,77.73
2018-12-12T10:34:27.261Z,87.40
2018-12-12T10:37:29.021Z,96.03
2018-12-12T10:40:30.739Z,87.47
2018-12-12T10:43:32.508Z,95.53
2018-12-12T10:46:34.765Z,80.27
2018-12-12T10:49:36.479Z,87.87
2018-12-12T10:52:38.268Z,82.60
2018-12-12T10:55:40.057Z,79.67
2018-12-12T10:58:41.850Z,72.13
2018-12-12T11:01:46.642Z,85.27
2018-12-12T11:04:48.608Z,83.80
2018-12-12T11:07:50.484Z,73.47
2018-12-12T11:10:52.425Z,79.03
2018-12-12T11:13:54.423Z,89.47
2018-12-12T11:16:56.179Z,76.80
2018-12-12T11:19:58.029Z,67.60
2018-12-12T11:22:59.830Z,28.73
2018-12-12T11:26:01.600Z,20.10
2018-12-12T11:29:03.365Z,16.80
2018-12-12T11:32:05.076Z,27.57
2018-12-12T11:35:06.894Z,20.30
2018-12-12T11:38:08.607Z,30.03
2018-12-12T11:41:10.430Z,34.93
2018-12-12T11:44:12.203Z,21.23
2018-12-12T11:47:14.000Z,27.90
2018-12-12T11:50:15.707Z,33.33
2018-12-12T11:53:17.454Z,31.33
2018-12-12T11:56:19.134Z,30.83
2018-12-12T11:59:20.963Z,33.43
2018-12-12T12:02:22.725Z,42.20
2018-12-12T12:05:24.463Z,42.50
2018-12-12T12:08:26.217Z,53.13
2018-12-12T12:11:28.146Z,57.20
2018-12-12T12:14:31.937Z,63.30
2018-12-12T12:17:33.606Z,71.90
2018-12-12T12:20:35.448Z,71.30
2018-12-12T12:23:37.235Z,75.17
2018-12-12T12:26:39.054Z,77.53
2018-12-12T12:29:40.824Z,70.60
2018-12-12T12:32:42.615Z,78.37
2018-12-12T12:35:44.386Z,67.10
2018-12-12T12:38:46.117Z,75.67
2018-12-12T12:41:48.000Z,73.77
2018-12-12T12:44:50.085Z,63.23
2018-12-12T12:47:51.857Z,72.17
2018-12-12T12:50:53.683Z,68.03
2018-12-12T12:53:55.528Z,68.90
2018-12-12T12:56:57.418Z,72.90
2018-12-12T12:59:59.165Z,73.80
2018-12-12T13:03:00.934Z,80.97
2018-12-12T13:06:02.682Z,85.37
2018-12-12T13:09:05.960Z,93.37
2018-12-12T13:15:29.269Z,115.67
2018-12-12T13:18:31.141Z,81.30
2018-12-12T13:21:32.935Z,99.50
2018-12-12T13:24:35.139Z,86.70
2018-12-12T13:27:36.946Z,196.53
2018-12-12T13:30:39.719Z,107.33
2018-12-12T13:33:41.488Z,124.00
2018-12-12T13:36:43.245Z,91.60
2018-12-12T13:39:44.995Z,91.90
2018-12-12T13:42:46.782Z,140.90
2018-12-12T13:45:48.527Z,72.33
2018-12-12T13:48:51.380Z,104.03
2018-12-12T13:51:53.147Z,83.73
2018-12-12T13:54:54.961Z,80.87
2018-12-12T13:57:58.217Z,80.43
2018-12-12T14:01:00.126Z,79.13
2018-12-12T14:04:01.953Z,62.10
2018-12-12T14:07:03.752Z,74.37
2018-12-12T14:10:05.499Z,76.27
2018-12-12T14:13:07.243Z,62.23
2018-12-12T14:16:09.072Z,64.37
2018-12-12T14:19:10.869Z,60.17
2018-12-12T14:22:12.802Z,59.17
2018-12-12T14:25:14.638Z,63.43
2018-12-12T14:28:16.347Z,63.43
2018-12-12T14:31:18.076Z,67.27
2018-12-12T14:34:19.854Z,65.60
2018-12-12T14:37:21.583Z,93.23
2018-12-12T14:40:23.446Z,90.40
2018-12-12T14:43:25.257Z,105.37
2018-12-12T14:46:27.015Z,106.20
2018-12-12T14:49:28.771Z,102.83
2018-12-12T14:52:30.581Z,71.90
2018-12-12T14:55:32.436Z,76.73
2018-12-12T14:58:34.161Z,73.50
2018-12-12T15:01:35.940Z,92.80
2018-12-12T15:04:37.689Z,76.17
2018-12-12T15:07:39.403Z,80.03
2018-12-12T15:10:41.105Z,78.50
2018-12-12T15:13:43.274Z,80.60
2018-12-12T15:16:45.114Z,73.47
2018-12-12T15:19:46.968Z,68.40
2018-12-12T15:22:48.815Z,73.93
2018-12-12T15:25:50.651Z,64.63
2018-12-12T15:28:52.387Z,58.70
2018-12-12T15:31:54.200Z,70.40
2018-12-12T17:13:55.236Z,114.30
2018-12-12T17:16:57.175Z,98.87
2018-12-12T17:20:00.195Z,112.53
2018-12-12T17:23:01.861Z,108.30
2018-12-12T17:26:03.692Z,114.07
2018-12-12T17:29:07.374Z,124.63
2018-12-12T17:32:10.966Z,174.30
2018-12-12T17:35:13.030Z,160.87
2018-12-12T17:38:15.198Z,144.73
2018-12-12T17:41:17.069Z,154.87
2018-12-12T17:44:18.809Z,159.07
2018-12-12T17:47:20.649Z,130.47
2018-12-12T17:50:22.590Z,136.13
2018-12-12T17:53:24.539Z,122.33
2018-12-12T17:56:26.478Z,111.97
2018-12-12T17:59:28.407Z,115.20
2018-12-12T18:02:30.847Z,102.93
2018-12-12T18:05:39.128Z,100.30
2018-12-12T18:08:40.978Z,105.63
2018-12-12T18:11:43.979Z,102.93
2018-12-12T18:14:46.710Z,89.17
2018-12-12T18:17:50.791Z,99.80
2018-12-12T18:20:52.997Z,104.17
2018-12-12T18:23:56.803Z,109.87
2018-12-12T18:26:59.027Z,112.47
2018-12-12T18:30:00.875Z,98.67
2018-12-12T18:33:04.803Z,102.43
2018-12-12T18:36:25.475Z,96.67
2018-12-12T18:39:27.415Z,94.90
2018-12-12T18:42:29.227Z,149.40
2018-12-12T18:45:32.000Z,117.53
2018-12-12T18:48:35.257Z,133.43
2018-12-12T18:51:40.267Z,111.77
2018-12-12T18:54:42.012Z,187.37
2018-12-12T18:57:45.940Z,224.10
2018-12-12T19:00:47.821Z,187.43
2018-12-12T19:03:49.712Z,193.00
2018-12-12T19:06:53.273Z,176.87
2018-12-12T19:13:13.171Z,196.57
2018-12-12T19:16:15.020Z,166.07
2018-12-12T19:19:16.940Z,151.90
2018-12-12T19:22:19.357Z,217.33
2018-12-12T19:25:21.326Z,236.63
2018-12-12T19:28:24.289Z,255.57
2018-12-12T19:31:27.110Z,193.50
2018-12-12T19:34:29.048Z,183.10
2018-12-12T19:37:33.872Z,190.40
2018-12-12T19:40:35.659Z,161.33
2018-12-12T19:43:38.292Z,151.87
2018-12-12T19:46:41.499Z,127.93
2018-12-12T19:49:45.464Z,114.27
2018-12-12T19:52:47.957Z,106.73
2018-12-12T19:55:49.769Z,122.00
2018-12-12T19:58:51.566Z,124.23
2018-12-12T20:01:54.430Z,149.90
2018-12-12T20:04:56.771Z,134.70
2018-12-12T20:07:59.820Z,140.77
2018-12-12T20:11:02.541Z,130.60
2018-12-12T20:14:05.531Z,134.13
2018-12-12T20:17:08.247Z,128.20
2018-12-12T20:20:10.111Z,126.07
2018-12-12T20:23:13.901Z,136.27
2018-12-12T20:26:16.314Z,134.47
2018-12-12T20:29:18.118Z,143.47
2018-12-12T20:32:20.621Z,146.43
2018-12-12T20:35:22.422Z,151.47
2018-12-12T20:38:25.263Z,139.77
2018-12-12T20:41:27.520Z,133.73
2018-12-12T20:44:29.543Z,141.93
2018-12-12T20:47:32.387Z,149.53
2018-12-12T20:50:34.577Z,138.50
2018-12-12T20:53:36.405Z,135.07
2018-12-12T20:56:38.263Z,118.80
2018-12-12T20:59:40.578Z,134.67
2018-12-12T21:02:42.367Z,126.07
2018-12-12T21:05:44.165Z,184.93
2018-12-12T21:08:47.084Z,165.40
2018-12-12T21:11:48.983Z,159.00
2018-12-12T21:14:50.759Z,135.80
2018-12-12T21:17:52.596Z,97.77
2018-12-12T21:20:55.146Z,112.00
2018-12-12T21:23:56.928Z,114.10
2018-12-12T21:26:59.636Z,109.70
2018-12-12T21:30:01.554Z,101.47
2018-12-12T21:33:03.248Z,109.90
2018-12-12T21:36:05.038Z,111.07
2018-12-12T21:39:07.386Z,127.13
2018-12-12T21:42:10.367Z,117.43
2018-12-12T21:45:12.176Z,119.27
2018-12-12T21:48:16.831Z,145.10
2018-12-12T21:51:18.625Z,117.57
2018-12-12T21:54:21.380Z,135.70
2018-12-12T21:57:23.727Z,146.70
2018-12-12T22:00:25.466Z,117.23
2018-12-12T22:03:27.199Z,128.10
2018-12-12T22:06:28.876Z,129.63
2018-12-12T22:09:30.728Z,131.27
2018-12-12T22:12:32.432Z,106.70
2018-12-12T22:15:34.134Z,103.93
2018-12-12T22:18:35.879Z,105.00
2018-12-12T22:21:37.655Z,97.67
2018-12-12T22:24:39.426Z,97.50
2018-12-12T22:27:41.462Z,90.73
2018-12-12T22:30:43.324Z,81.63
2018-12-12T22:33:45.098Z,91.67
2018-12-12T22:36:46.820Z,86.87
2018-12-12T22:39:48.579Z,97.30
2018-12-12T22:42:50.323Z,85.67
2018-12-12T22:45:52.067Z,91.60
2018-12-12T22:48:53.873Z,93.33
2018-12-12T22:51:55.822Z,97.10
2018-12-12T22:54:57.572Z,89.80
2018-12-12T22:57:59.305Z,72.23
2018-12-12T23:01:03.945Z,80.97
2018-12-12T23:04:05.757Z,79.60
2018-12-12T23:07:07.528Z,95.47
2018-12-12T23:10:09.246Z,83.80
2018-12-12T23:13:10.976Z,83.47
2018-12-12T23:16:12.695Z,89.70
2018-12-12T23:19:14.487Z,76.13
2018-12-12T23:22:16.289Z,76.67
2018-12-12T23:25:18.112Z,86.43
2018-12-12T23:28:19.872Z,90.90
2018-12-12T23:31:21.582Z,103.90
2018-12-12T23:34:23.295Z,91.20
2018-12-12T23:37:25.026Z,83.43
2018-12-12T23:40:26.784Z,83.67
2018-12-12T23:43:28.498Z,85.07
2018-12-12T23:46:30.259Z,90.80
2018-12-12T23:49:31.967Z,79.93
2018-12-12T23:52:33.875Z,92.10
2018-12-12T23:55:36.752Z,78.20
2018-12-12T23:58:38.520Z,81.73
